Time;durP1;ratioP1;P1;durP2;ratioP2;P2;SDS_P1;SDS_P2;PMS_P1;PMS_P2;Temp;Humidity;BMP_temperature;BMP_pressure;BME280_temperature;BME280_humidity;BME280_pressure;Samples;Min_cycle;Max_cycle;Signal;HPM_P1;HPM_P2
2023/04/29 00:01:57;;;;;;;;;;;;;;;;;;5016415;28;19932;-44
2023/04/29 00:04:32;;;;;;;;;;;;;;;;;;5015908;28;20404;-48
2023/04/29 00:06:59;;;;;;;;;;;;;;;;;;5014718;28;19925;-44
2023/04/29 00:09:26;;;;;;;;;;;;;;;;;;5017276;28;19925;-48
2023/04/29 00:12:01;;;;;;;;;;;;;;;;;;5016673;28;20281;-45
2023/04/29 00:14:28;;;;;;;;;;;;;;;;;;5016793;28;20034;-50
2023/04/29 00:16:56;;;;;;;;;;;;;;;;;;5017587;28;20436;-45
2023/04/29 00:19:30;;;;;;;;;;;;;;;;;;5014661;28;19929;-45
2023/04/29 00:21:57;;;;;;;;;;;;;;;;;;5019206;28;19928;-51
2023/04/29 00:24:31;;;;;;;;;;;;;;;;;;5019298;28;19925;-50
2023/04/29 00:26:58;;;;;;;;;;;;;;;;;;5019414;28;20265;-55
2023/04/29 00:29:26;;;;;;;;;;;;;;;;;;5015432;28;19931;-49
2023/04/29 00:32:00;;;;;;;;;;;;;;;;;;5016545;28;20023;-50
2023/04/29 00:34:27;;;;;;;;;;;;;;;;;;5017440;28;19925;-56
2023/04/29 00:37:01;;;;;;;;;;;;;;;;;;5015105;28;19929;-50
2023/04/29 00:39:28;;;;;;;;;;;;;;;;;;5020516;28;19928;-62
2023/04/29 00:41:55;;;;;;;;;;;;;;;;;;5019288;28;19921;-63
2023/04/29 00:44:29;;;;;;;;;;;;;;;;;;5015081;28;20408;-63
2023/04/29 00:46:56;;;;;;;;;;;;;;;;;;5015074;28;20004;-64
2023/04/29 00:49:30;;;;;;;;;;;;;;;;;;5015040;28;19935;-60
2023/04/29 00:51:57;;;;;;;;;;;;;;;;;;5018029;28;19929;-54
2023/04/29 00:54:24;;;;;;;;;;;;;;;;;;5016536;28;19928;-55
2023/04/29 00:56:58;;;;;;;;;;;;;;;;;;5017196;28;20381;-55
2023/04/29 00:59:30;;;;;;;;;;;;;;;;;;5016977;28;20424;-52
2023/04/29 01:02:04;;;;;;;;;;;;;;;;;;5018200;28;19932;-51
2023/04/29 01:04:31;;;;;;;;;;;;;;;;;;5018385;28;19925;-50
2023/04/29 01:06:59;;;;;;;;;;;;;;;;;;5017742;28;19972;-50
2023/04/29 01:09:33;;;;;;;;;;;;;;;;;;5017751;28;19929;-55
2023/04/29 01:12:00;;;;;;;;;;;;;;;;;;5018433;28;19921;-44
2023/04/29 01:14:34;;;;;;;;;;;;;;;;;;5013178;28;20423;-47
2023/04/29 01:17:01;;;;;;;;;;;;;;;;;;5015776;28;20446;-46
2023/04/29 01:19:35;;;;;;;;;;;;;;;;;;5015150;28;19929;-46
2023/04/29 01:22:02;;;;;;;;;;;;;;;;;;5016551;28;20018;-44
2023/04/29 01:24:36;;;;;;;;;;;;;;;;;;5002861;28;20385;-46
2023/04/29 01:27:03;;;;;;;;;;;;;;;;;;5023826;28;20020;-55
2023/04/29 01:29:37;;;;;;;;;;;;;;;;;;5018768;28;20008;-49
2023/04/29 01:32:04;;;;;;;;;;;;;;;;;;5019805;28;20016;-52
2023/04/29 01:34:31;;;;;;;;;;;;;;;;;;5020005;28;19936;-52
2023/04/29 01:37:05;;;;;;;;;;;;;;;;;;5018801;28;20368;-56
2023/04/29 01:39:32;;;;;;;;;;;;;;;;;;5025426;28;20019;-58
2023/04/29 01:42:06;;;;;;;;;;;;;;;;;;5021924;28;19931;-57
2023/04/29 01:44:33;;;;;;;;;;;;;;;;;;5020270;28;19929;-56
2023/04/29 01:47:00;;;;;;;;;;;;;;;;;;5021141;28;20390;-57
2023/04/29 01:49:34;;;;;;;;;;;;;;;;;;5020424;28;20371;-59
2023/04/29 01:52:01;;;;;;;;;;;;;;;;;;5021655;28;20024;-58
2023/04/29 01:54:35;;;;;;;;;;;;;;;;;;5021604;28;20012;-58
2023/04/29 01:57:02;;;;;;;;;;;;;;;;;;5020055;28;19920;-57
2023/04/29 01:59:29;;;;;;;;;;;;;;;;;;5023155;28;19932;-59
2023/04/29 02:02:03;;;;;;;;;;;;;;;;;;5018863;28;21614;-58
2023/04/29 02:04:32;;;;;;;;;;;;;;;;;;5019944;28;19931;-60
2023/04/29 02:07:06;;;;;;;;;;;;;;;;;;5020450;28;19925;-46
2023/04/29 02:09:33;;;;;;;;;;;;;;;;;;5017878;28;19935;-46
2023/04/29 02:12:00;;;;;;;;;;;;;;;;;;5020692;28;19939;-44
2023/04/29 02:14:35;;;;;;;;;;;;;;;;;;5020408;28;19928;-44
2023/04/29 02:17:03;;;;;;;;;;;;;;;;;;5016330;28;19921;-49
2023/04/29 02:19:37;;;;;;;;;;;;;;;;;;5018889;28;19929;-44
2023/04/29 02:22:04;;;;;;;;;;;;;;;;;;5020273;28;19925;-47
2023/04/29 02:24:31;;;;;;;;;;;;;;;;;;5017781;28;20361;-61
2023/04/29 02:27:05;;;;;;;;;;;;;;;;;;5015600;28;19939;-61
2023/04/29 02:29:32;;;;;;;;;;;;;;;;;;5017884;28;20052;-61
2023/04/29 02:32:06;;;;;;;;;;;;;;;;;;5019399;28;19999;-61
2023/04/29 02:34:33;;;;;;;;;;;;;;;;;;5014136;28;19929;-52
2023/04/29 02:37:00;;;;;;;;;;;;;;;;;;5019804;28;19979;-66
2023/04/29 02:39:34;;;;;;;;;;;;;;;;;;5019362;28;19947;-65
2023/04/29 02:42:01;;;;;;;;;;;;;;;;;;5017397;28;20312;-64
2023/04/29 02:44:35;;;;;;;;;;;;;;;;;;5015655;28;20383;-66
2023/04/29 02:47:02;;;;;;;;;;;;;;;;;;5016977;28;19944;-65
2023/04/29 02:49:29;;;;;;;;;;;;;;;;;;5014472;28;19921;-65
2023/04/29 02:52:03;;;;;;;;;;;;;;;;;;5020251;28;19929;-53
2023/04/29 02:54:30;;;;;;;;;;;;;;;;;;5020745;28;20388;-50
2023/04/29 02:56:58;;;;;;;;;;;;;;;;;;5018619;28;19940;-52
2023/04/29 02:59:32;;;;;;;;;;;;;;;;;;5018599;28;19925;-47
2023/04/29 03:02:00;;;;;;;;;;;;;;;;;;5021212;28;19921;-59
2023/04/29 03:04:34;;;;;;;;;;;;;;;;;;5022261;28;19932;-65
2023/04/29 03:07:01;;;;;;;;;;;;;;;;;;5017373;28;19931;-64
2023/04/29 03:09:29;;;;;;;;;;;;;;;;;;5021240;28;19931;-65
2023/04/29 03:12:03;;;;;;;;;;;;;;;;;;5016815;28;19921;-64
2023/04/29 03:14:30;;;;;;;;;;;;;;;;;;5020243;28;19936;-65
2023/04/29 03:17:04;;;;;;;;;;;;;;;;;;5017517;28;19926;-64
2023/04/29 03:19:31;;;;;;;;;;;;;;;;;;5019863;28;19960;-45
2023/04/29 03:21:59;;;;;;;;;;;;;;;;;;5016460;28;20004;-47
2023/04/29 03:24:33;;;;;;;;;;;;;;;;;;5017692;28;19929;-48
2023/04/29 03:27:00;;;;;;;;;;;;;;;;;;5018714;28;19935;-47
2023/04/29 03:29:34;;;;;;;;;;;;;;;;;;5019357;28;20474;-59
2023/04/29 03:32:01;;;;;;;;;;;;;;;;;;5019511;28;20011;-61
2023/04/29 03:34:28;;;;;;;;;;;;;;;;;;5019767;28;19927;-52
2023/04/29 03:37:02;;;;;;;;;;;;;;;;;;5018066;28;19931;-57
2023/04/29 03:39:31;;;;;;;;;;;;;;;;;;5018851;28;20384;-54
2023/04/29 03:42:05;;;;;;;;;;;;;;;;;;5016925;28;19930;-52
2023/04/29 03:44:32;;;;;;;;;;;;;;;;;;5015786;28;20008;-52
2023/04/29 03:46:59;;;;;;;;;;;;;;;;;;5015803;28;19947;-50
2023/04/29 03:49:33;;;;;;;;;;;;;;;;;;5016024;28;20019;-51
2023/04/29 03:52:00;;;;;;;;;;;;;;;;;;5018606;28;19921;-49
2023/04/29 03:54:34;;;;;;;;;;;;;;;;;;5016710;28;20382;-53
2023/04/29 03:57:02;;;;;;;;;;;;;;;;;;5016807;28;20374;-49
2023/04/29 03:59:29;;;;;;;;;;;;;;;;;;5019475;28;20016;-55
2023/04/29 04:02:03;;;;;;;;;;;;;;;;;;5016683;28;19925;-49
2023/04/29 04:04:30;;;;;;;;;;;;;;;;;;5015856;28;19932;-53
2023/04/29 04:06:57;;;;;;;;;;;;;;;;;;5018368;28;19927;-50
2023/04/29 04:09:32;;;;;;;;;;;;;;;;;;5017229;28;19933;-47
2023/04/29 04:12:00;;;;;;;;;;;;;;;;;;5018728;28;20292;-51
2023/04/29 04:14:34;;;;;;;;;;;;;;;;;;5016798;28;20336;-49
2023/04/29 04:17:01;;;;;;;;;;;;;;;;;;5017982;28;19931;-50
2023/04/29 04:19:28;;;;;;;;;;;;;;;;;;5015677;28;20019;-45
2023/04/29 04:22:02;;;;;;;;;;;;;;;;;;5017800;28;19925;-50
2023/04/29 04:24:29;;;;;;;;;;;;;;;;;;5015040;28;19925;-50
2023/04/29 04:27:03;;;;;;;;;;;;;;;;;;5019849;28;19925;-56
2023/04/29 04:29:30;;;;;;;;;;;;;;;;;;5017875;28;19924;-56
2023/04/29 04:31:57;;;;;;;;;;;;;;;;;;5013857;28;20672;-55
2023/04/29 04:34:31;;;;;;;;;;;;;;;;;;5014933;28;20411;-55
2023/04/29 04:36:58;;;;;;;;;;;;;;;;;;5017687;28;19929;-57
2023/04/29 04:39:25;;;;;;;;;;;;;;;;;;5016463;28;19925;-56
2023/04/29 04:41:59;;;;;;;;;;;;;;;;;;5013085;28;21129;-57
2023/04/29 04:44:26;;;;;;;;;;;;;;;;;;5011522;28;19921;-56
2023/04/29 04:47:01;;;;;;;;;;;;;;;;;;5014529;28;19926;-53
2023/04/29 04:49:28;;;;;;;;;;;;;;;;;;5011801;28;20008;-55
2023/04/29 04:51:55;;;;;;;;;;;;;;;;;;5018269;28;20414;-55
2023/04/29 04:54:29;;;;;;;;;;;;;;;;;;5018127;28;20353;-50
2023/04/29 04:56:56;;;;;;;;;;;;;;;;;;5011959;28;19948;-47
2023/04/29 04:59:30;;;;;;;;;;;;;;;;;;5010246;28;19929;-63
2023/04/29 05:01:57;;;;;;;;;;;;;;;;;;5016182;28;20435;-64
2023/04/29 05:04:24;;;;;;;;;;;;;;;;;;5015798;28;19940;-63
2023/04/29 05:06:58;;;;;;;;;;;;;;;;;;5017904;28;19921;-62
2023/04/29 05:09:25;;;;;;;;;;;;;;;;;;5017878;28;20266;-62
2023/04/29 05:11:59;;;;;;;;;;;;;;;;;;5022163;28;20415;-62
2023/04/29 05:14:26;;;;;;;;;;;;;;;;;;5021499;28;19936;-52
2023/04/29 05:16:53;;;;;;;;;;;;;;;;;;5022463;28;19931;-49
2023/04/29 05:19:27;;;;;;;;;;;;;;;;;;5018998;28;19964;-49
2023/04/29 05:21:54;;;;;;;;;;;;;;;;;;5018972;28;20407;-55
2023/04/29 05:24:29;;;;;;;;;;;;;;;;;;5024277;28;20024;-53
2023/04/29 05:26:56;;;;;;;;;;;;;;;;;;5018921;28;19921;-62
2023/04/29 05:29:23;;;;;;;;;;;;;;;;;;5019151;28;20008;-62
2023/04/29 05:31:57;;;;;;;;;;;;;;;;;;5019974;28;20016;-62
2023/04/29 05:34:24;;;;;;;;;;;;;;;;;;5016745;28;19929;-62
2023/04/29 05:36:58;;;;;;;;;;;;;;;;;;5021781;28;19928;-62
2023/04/29 05:39:25;;;;;;;;;;;;;;;;;;5018058;28;19929;-62
2023/04/29 05:41:52;;;;;;;;;;;;;;;;;;5025138;28;20015;-63
2023/04/29 05:44:26;;;;;;;;;;;;;;;;;;5022176;28;19929;-64
2023/04/29 05:46:53;;;;;;;;;;;;;;;;;;5020043;28;19921;-64
2023/04/29 05:49:27;;;;;;;;;;;;;;;;;;5017914;28;19925;-65
2023/04/29 05:51:54;;;;;;;;;;;;;;;;;;5023295;28;19968;-60
2023/04/29 05:54:21;;;;;;;;;;;;;;;;;;5020850;28;19931;-51
2023/04/29 05:56:55;;;;;;;;;;;;;;;;;;5021388;28;19925;-62
2023/04/29 05:59:22;;;;;;;;;;;;;;;;;;5018266;28;19928;-62
2023/04/29 06:01:56;;;;;;;;;;;;;;;;;;5018903;28;19922;-61
2023/04/29 06:04:24;;;;;;;;;;;;;;;;;;5015190;28;19976;-62
2023/04/29 06:06:51;;;;;;;;;;;;;;;;;;5020832;28;20219;-61
2023/04/29 06:09:25;;;;;;;;;;;;;;;;;;5019404;28;19944;-62
2023/04/29 06:11:54;;;;;;;;;;;;;;;;;;5022071;28;19929;-58
2023/04/29 06:14:28;;;;;;;;;;;;;;;;;;5020392;28;19976;-58
2023/04/29 06:16:55;;;;;;;;;;;;;;;;;;5021924;28;20443;-58
2023/04/29 06:19:23;;;;;;;;;;;;;;;;;;5020235;28;19925;-57
2023/04/29 06:21:57;;;;;;;;;;;;;;;;;;5022669;28;19921;-61
2023/04/29 06:24:24;;;;;;;;;;;;;;;;;;5020927;28;19952;-61
2023/04/29 06:26:58;;;;;;;;;;;;;;;;;;5022591;28;19996;-60
2023/04/29 06:29:32;;;;;;;;;;;;;;;;;;5012527;28;19922;-60
2023/04/29 06:32:06;;;;;;;;;;;;;;;;;;5010288;28;19967;-60
2023/04/29 06:34:33;;;;;;;;;;;;;;;;;;5009619;28;19928;-60
2023/04/29 06:37:00;;;;;;;;;;;;;;;;;;5010663;28;19933;-60
2023/04/29 06:39:34;;;;;;;;;;;;;;;;;;5014961;28;19929;-64
2023/04/29 06:42:02;;;;;;;;;;;;;;;;;;5011969;28;19925;-62
2023/04/29 06:44:29;;;;;;;;;;;;;;;;;;5009427;28;19979;-63
2023/04/29 06:47:03;;;;;;;;;;;;;;;;;;5020001;28;19929;-63
2023/04/29 06:49:30;;;;;;;;;;;;;;;;;;5016965;28;20385;-55
2023/04/29 06:52:04;;;;;;;;;;;;;;;;;;5012054;28;20315;-46
2023/04/29 06:54:31;;;;;;;;;;;;;;;;;;5017302;28;19921;-46
2023/04/29 06:56:58;;;;;;;;;;;;;;;;;;5013622;28;20456;-46
2023/04/29 06:59:32;;;;;;;;;;;;;;;;;;5017997;28;19921;-49
2023/04/29 07:01:59;;;;;;;;;;;;;;;;;;5012814;28;19979;-46
2023/04/29 07:04:26;;;;;;;;;;;;;;;;;;5020745;28;19935;-49
2023/04/29 07:07:00;;;;;;;;;;;;;;;;;;5017752;28;19948;-62
2023/04/29 07:09:27;;;;;;;;;;;;;;;;;;5021623;28;20011;-63
2023/04/29 07:12:02;;;;;;;;;;;;;;;;;;5017260;28;20399;-62
2023/04/29 07:14:29;;;;;;;;;;;;;;;;;;5001094;28;19935;-63
2023/04/29 07:16:56;;;;;;;;;;;;;;;;;;5012625;28;19929;-63
2023/04/29 07:19:30;;;;;;;;;;;;;;;;;;5018641;28;20798;-53
2023/04/29 07:21:57;;;;;;;;;;;;;;;;;;5003632;28;20012;-55
2023/04/29 07:24:31;;;;;;;;;;;;;;;;;;4995552;28;19925;-54
2023/04/29 07:26:58;;;;;;;;;;;;;;;;;;4996076;28;19930;-54
2023/04/29 07:29:25;;;;;;;;;;;;;;;;;;4992432;28;19957;-54
2023/04/29 07:31:59;;;;;;;;;;;;;;;;;;4991187;28;19929;-55
2023/04/29 07:34:26;;;;;;;;;;;;;;;;;;4993332;28;19936;-53
2023/04/29 07:37:00;;;;;;;;;;;;;;;;;;4996033;28;19930;-46
2023/04/29 07:39:28;;;;;;;;;;;;;;;;;;4992282;28;19932;-53
2023/04/29 07:41:55;;;;;;;;;;;;;;;;;;4990557;28;20011;-52
2023/04/29 07:44:29;;;;;;;;;;;;;;;;;;4992723;28;19929;-51
2023/04/29 07:46:56;;;;;;;;;;;;;;;;;;4989214;28;20488;-57
2023/04/29 07:49:30;;;;;;;;;;;;;;;;;;4991919;28;19921;-57
2023/04/29 07:51:57;;;;;;;;;;;;;;;;;;4990020;28;19929;-58
2023/04/29 07:54:24;;;;;;;;;;;;;;;;;;4997754;28;20016;-57
2023/04/29 07:56:59;;;;;;;;;;;;;;;;;;5000163;28;19926;-57
2023/04/29 07:59:26;;;;;;;;;;;;;;;;;;4997300;28;19936;-58
2023/04/29 08:02:00;;;;;;;;;;;;;;;;;;5000192;28;22135;-57
2023/04/29 08:04:27;;;;;;;;;;;;;;;;;;4999837;28;19925;-62
2023/04/29 08:06:54;;;;;;;;;;;;;;;;;;4994883;28;23958;-54
2023/04/29 08:09:28;;;;;;;;;;;;;;;;;;5001872;28;19936;-48
2023/04/29 08:11:55;;;;;;;;;;;;;;;;;;4998727;28;19927;-47
2023/04/29 08:14:22;;;;;;;;;;;;;;;;;;4997105;28;19929;-46
2023/04/29 08:16:56;;;;;;;;;;;;;;;;;;5000972;28;19935;-51
2023/04/29 08:19:23;;;;;;;;;;;;;;;;;;4998668;28;20381;-46
2023/04/29 08:21:57;;;;;;;;;;;;;;;;;;5014170;28;20388;-47
2023/04/29 08:24:24;;;;;;;;;;;;;;;;;;5017599;28;19925;-59
2023/04/29 08:26:52;;;;;;;;;;;;;;;;;;5022044;28;19925;-59
2023/04/29 08:29:26;;;;;;;;;;;;;;;;;;5017266;28;19921;-58
2023/04/29 08:31:53;;;;;;;;;;;;;;;;;;5019399;28;19921;-59
2023/04/29 08:34:27;;;;;;;;;;;;;;;;;;5019625;28;19952;-58
2023/04/29 08:36:54;;;;;;;;;;;;;;;;;;5019304;28;19931;-57
2023/04/29 08:39:21;;;;;;;;;;;;;;;;;;5021514;28;20008;-55
2023/04/29 08:41:56;;;;;;;;;;;;;;;;;;5018440;28;19929;-58
2023/04/29 08:44:23;;;;;;;;;;;;;;;;;;5019875;28;20383;-58
2023/04/29 08:46:50;;;;;;;;;;;;;;;;;;5009849;28;20006;-59
2023/04/29 08:49:24;;;;;;;;;;;;;;;;;;5014232;28;20304;-58
2023/04/29 08:51:51;;;;;;;;;;;;;;;;;;5015865;28;20015;-53
2023/04/29 08:54:26;;;;;;;;;;;;;;;;;;5014704;28;20331;-49
2023/04/29 08:56:53;;;;;;;;;;;;;;;;;;5023480;28;19939;-46
2023/04/29 08:59:27;;;;;;;;;;;;;;;;;;5016902;28;19928;-49
2023/04/29 09:01:54;;;;;;;;;;;;;;;;;;5014913;28;19933;-61
2023/04/29 09:04:28;;;;;;;;;;;;;;;;;;5019791;28;19927;-54
2023/04/29 09:06:55;;;;;;;;;;;;;;;;;;5015584;28;19936;-54
2023/04/29 09:09:22;;;;;;;;;;;;;;;;;;5022526;28;20462;-56
2023/04/29 09:11:56;;;;;;;;;;;;;;;;;;5012565;28;19929;-55
2023/04/29 09:14:23;;;;;;;;;;;;;;;;;;5008886;28;20376;-54
2023/04/29 09:16:58;;;;;;;;;;;;;;;;;;5018013;28;20407;-56
2023/04/29 09:19:25;;;;;;;;;;;;;;;;;;5020744;28;19935;-59
2023/04/29 09:21:59;;;;;;;;;;;;;;;;;;5010348;28;19936;-59
2023/04/29 09:24:26;;;;;;;;;;;;;;;;;;5009982;28;19961;-59
2023/04/29 09:26:53;;;;;;;;;;;;;;;;;;5015978;28;19922;-60
2023/04/29 09:29:28;;;;;;;;;;;;;;;;;;5016535;28;19933;-60
2023/04/29 09:32:02;;;;;;;;;;;;;;;;;;5021360;28;19963;-60
2023/04/29 09:34:29;;;;;;;;;;;;;;;;;;5022407;28;19929;-60
2023/04/29 09:36:57;;;;;;;;;;;;;;;;;;5021458;28;20372;-60
2023/04/29 09:39:31;;;;;;;;;;;;;;;;;;5018470;28;19996;-60
2023/04/29 09:41:58;;;;;;;;;;;;;;;;;;5018941;28;19924;-56
2023/04/29 09:44:32;;;;;;;;;;;;;;;;;;5020045;28;19935;-56
2023/04/29 09:47:01;;;;;;;;;;;;;;;;;;5021442;28;20396;-59
2023/04/29 09:49:36;;;;;;;;;;;;;;;;;;5018908;28;20820;-57
2023/04/29 09:52:03;;;;;;;;;;;;;;;;;;4997296;28;19924;-55
2023/04/29 09:54:30;;;;;;;;;;;;;;;;;;5019992;28;19931;-58
2023/04/29 09:57:07;;;;;;;;;;;;;;;;;;5018544;28;19949;-59
2023/04/29 09:59:42;;;;;;;;;;;;;;;;;;5020840;28;19927;-50
2023/04/29 10:02:19;;;;;;;;;;;;;;;;;;5019902;28;19925;-62
2023/04/29 10:04:46;;;;;;;;;;;;;;;;;;5021105;28;20013;-62
2023/04/29 10:07:20;;;;;;;;;;;;;;;;;;5022614;28;19921;-62
2023/04/29 10:09:47;;;;;;;;;;;;;;;;;;5019365;28;20463;-61
2023/04/29 10:12:15;;;;;;;;;;;;;;;;;;5018856;28;20569;-62
2023/04/29 10:14:49;;;;;;;;;;;;;;;;;;5012081;28;19944;-61
2023/04/29 10:17:16;;;;;;;;;;;;;;;;;;5018532;28;19940;-60
2023/04/29 10:19:50;;;;;;;;;;;;;;;;;;5021487;28;20021;-62
2023/04/29 10:22:24;;;;;;;;;;;;;;;;;;5022275;28;19928;-62
2023/04/29 10:24:58;;;;;;;;;;;;;;;;;;5022035;28;19933;-62
2023/04/29 10:27:25;;;;;;;;;;;;;;;;;;5021014;28;19925;-62
2023/04/29 10:29:53;;;;;;;;;;;;;;;;;;5022444;28;19925;-63
2023/04/29 10:32:26;;;;;;;;;;;;;;;;;;5021140;28;19931;-64
2023/04/29 10:34:56;;;;;;;;;;;;;;;;;;5023207;28;20399;-61
2023/04/29 10:37:30;;;;;;;;;;;;;;;;;;5020273;28;20048;-52
2023/04/29 10:39:57;;;;;;;;;;;;;;;;;;5023102;28;19929;-54
2023/04/29 10:42:24;;;;;;;;;;;;;;;;;;5017497;28;20387;-56
2023/04/29 10:44:58;;;;;;;;;;;;;;;;;;5023210;28;19921;-56
2023/04/29 10:47:25;;;;;;;;;;;;;;;;;;5001962;28;20381;-57
2023/04/29 10:49:59;;;;;;;;;;;;;;;;;;5021145;28;19965;-55
2023/04/29 10:52:26;;;;;;;;;;;;;;;;;;5019024;28;20383;-55
2023/04/29 10:54:53;;;;;;;;;;;;;;;;;;5022169;28;19931;-55
2023/04/29 10:57:27;;;;;;;;;;;;;;;;;;5020158;28;20373;-59
2023/04/29 10:59:55;;;;;;;;;;;;;;;;;;5017874;28;19929;-60
2023/04/29 11:02:29;;;;;;;;;;;;;;;;;;5020139;28;20019;-60
2023/04/29 11:04:56;;;;;;;;;;;;;;;;;;5019642;28;19932;-61
2023/04/29 11:07:23;;;;;;;;;;;;;;;;;;5021861;28;19925;-61
2023/04/29 11:09:57;;;;;;;;;;;;;;;;;;5020449;28;19929;-61
2023/04/29 11:12:24;;;;;;;;;;;;;;;;;;5016034;28;19929;-46
2023/04/29 11:15:03;;;;;;;;;;;;;;;;;;5016623;28;19921;-61
2023/04/29 11:17:30;;;;;;;;;;;;;;;;;;5019242;28;19921;-62
2023/04/29 11:20:04;;;;;;;;;;;;;;;;;;5019210;28;19925;-60
2023/04/29 11:22:32;;;;;;;;;;;;;;;;;;5019011;28;21143;-60
2023/04/29 11:25:06;;;;;;;;;;;;;;;;;;5017666;28;19925;-61
2023/04/29 11:27:33;;;;;;;;;;;;;;;;;;5016215;28;19929;-61
2023/04/29 11:30:07;;;;;;;;;;;;;;;;;;5020789;28;19931;-47
2023/04/29 11:32:34;;;;;;;;;;;;;;;;;;5017329;28;19922;-61
2023/04/29 11:35:01;;;;;;;;;;;;;;;;;;5022652;28;19929;-61
2023/04/29 11:37:35;;;;;;;;;;;;;;;;;;5017411;28;20223;-62
2023/04/29 11:40:03;;;;;;;;;;;;;;;;;;5020712;28;19935;-61
2023/04/29 11:42:30;;;;;;;;;;;;;;;;;;5022886;28;20500;-61
2023/04/29 11:45:04;;;;;;;;;;;;;;;;;;5022631;28;21222;-62
2023/04/29 11:47:31;;;;;;;;;;;;;;;;;;5018368;28;20504;-61
2023/04/29 11:49:58;;;;;;;;;;;;;;;;;;5018573;28;20392;-47
2023/04/29 11:52:32;;;;;;;;;;;;;;;;;;5016769;28;19927;-61
2023/04/29 11:54:59;;;;;;;;;;;;;;;;;;5017580;28;20979;-61
2023/04/29 11:57:33;;;;;;;;;;;;;;;;;;5016254;28;20447;-61
2023/04/29 12:00:00;;;;;;;;;;;;;;;;;;5015014;28;19931;-61
2023/04/29 12:02:27;;;;;;;;;;;;;;;;;;5017816;28;19925;-61
2023/04/29 12:05:01;;;;;;;;;;;;;;;;;;5017875;28;19931;-61
2023/04/29 12:07:29;;;;;;;;;;;;;;;;;;5018102;28;19921;-63
2023/04/29 12:09:56;;;;;;;;;;;;;;;;;;5013809;28;20369;-51
2023/04/29 12:12:33;;;;;;;;;;;;;;;;;;5013517;28;19925;-49
2023/04/29 12:15:07;;;;;;;;;;;;;;;;;;5016252;28;20707;-51
2023/04/29 12:17:41;;;;;;;;;;;;;;;;;;5017101;28;20478;-49
2023/04/29 12:20:23;;;;;;;;;;;;;;;;;;5004138;28;19921;-49
2023/04/29 12:22:50;;;;;;;;;;;;;;;;;;5024736;28;19931;-55
2023/04/29 12:25:24;;;;;;;;;;;;;;;;;;5010893;28;19931;-50
2023/04/29 12:27:51;;;;;;;;;;;;;;;;;;5021410;28;20015;-56
2023/04/29 12:30:18;;;;;;;;;;;;;;;;;;5021594;28;20307;-61
2023/04/29 12:32:52;;;;;;;;;;;;;;;;;;5014878;28;20369;-61
2023/04/29 12:35:19;;;;;;;;;;;;;;;;;;5015518;28;20029;-61
2023/04/29 12:37:53;;;;;;;;;;;;;;;;;;5018170;28;19921;-61
2023/04/29 12:40:20;;;;;;;;;;;;;;;;;;5013159;28;19928;-61
2023/04/29 12:42:47;;;;;;;;;;;;;;;;;;5005884;28;19957;-61
2023/04/29 12:45:21;;;;;;;;;;;;;;;;;;5007660;28;19947;-62
2023/04/29 12:47:48;;;;;;;;;;;;;;;;;;5015712;28;19921;-62
2023/04/29 12:50:22;;;;;;;;;;;;;;;;;;5017896;28;20011;-62
2023/04/29 12:52:49;;;;;;;;;;;;;;;;;;5017986;28;20594;-62
2023/04/29 12:55:16;;;;;;;;;;;;;;;;;;5015011;28;19920;-62
2023/04/29 12:57:50;;;;;;;;;;;;;;;;;;5012943;28;19999;-62
2023/04/29 13:00:27;;;;;;;;;;;;;;;;;;5012713;28;19967;-61
2023/04/29 13:03:01;;;;;;;;;;;;;;;;;;5015123;28;19971;-52
2023/04/29 13:05:28;;;;;;;;;;;;;;;;;;5017531;28;19925;-55
2023/04/29 13:07:55;;;;;;;;;;;;;;;;;;5016274;28;20275;-55
2023/04/29 13:10:29;;;;;;;;;;;;;;;;;;5016814;28;19925;-50
2023/04/29 13:12:56;;;;;;;;;;;;;;;;;;5019289;28;19922;-48
2023/04/29 13:15:32;;;;;;;;;;;;;;;;;;5013462;28;19939;-50
2023/04/29 13:17:59;;;;;;;;;;;;;;;;;;5020037;28;19925;-47
2023/04/29 13:20:26;;;;;;;;;;;;;;;;;;5017427;28;19935;-62
2023/04/29 13:23:07;;;;;;;;;;;;;;;;;;5020141;28;20296;-62
2023/04/29 13:25:34;;;;;;;;;;;;;;;;;;5012184;28;20427;-62
2023/04/29 13:28:08;;;;;;;;;;;;;;;;;;5021164;28;19928;-62
2023/04/29 13:30:35;;;;;;;;;;;;;;;;;;5020276;28;20047;-62
2023/04/29 13:33:02;;;;;;;;;;;;;;;;;;5017639;28;19940;-61
2023/04/29 13:35:40;;;;;;;;;;;;;;;;;;5018811;28;19921;-62
2023/04/29 13:38:07;;;;;;;;;;;;;;;;;;5016728;28;19930;-62
2023/04/29 13:40:41;;;;;;;;;;;;;;;;;;5015668;28;19936;-60
2023/04/29 13:43:12;;;;;;;;;;;;;;;;;;5019938;28;19972;-57
2023/04/29 13:45:44;;;;;;;;;;;;;;;;;;5020714;28;20384;-54
2023/04/29 13:48:22;;;;;;;;;;;;;;;;;;5016995;28;19933;-53
2023/04/29 13:51:09;;;;;;;;;;;;;;;;;;5015007;28;19935;-56
2023/04/29 13:53:46;;;;;;;;;;;;;;;;;;5013779;28;19936;-53
2023/04/29 13:56:16;;;;;;;;;;;;;;;;;;5019906;28;19931;-58
2023/04/29 13:58:53;;;;;;;;;;;;;;;;;;5012186;28;19920;-50
2023/04/29 14:01:26;;;;;;;;;;;;;;;;;;4991367;28;19925;-58
2023/04/29 14:04:10;;;;;;;;;;;;;;;;;;5014286;28;20293;-60
2023/04/29 14:06:37;;;;;;;;;;;;;;;;;;5009525;28;19956;-60
2023/04/29 14:09:11;;;;;;;;;;;;;;;;;;5020030;28;19920;-60
2023/04/29 14:11:38;;;;;;;;;;;;;;;;;;5012861;28;19925;-59
2023/04/29 14:14:06;;;;;;;;;;;;;;;;;;5015251;28;19921;-60
2023/04/29 14:16:39;;;;;;;;;;;;;;;;;;5007529;28;20024;-58
2023/04/29 14:19:06;;;;;;;;;;;;;;;;;;5011561;28;19921;-62
2023/04/29 14:21:40;;;;;;;;;;;;;;;;;;5015655;28;19968;-62
2023/04/29 14:24:07;;;;;;;;;;;;;;;;;;5020047;28;19939;-62
2023/04/29 14:26:35;;;;;;;;;;;;;;;;;;5017348;28;19921;-62
2023/04/29 14:29:09;;;;;;;;;;;;;;;;;;5019152;28;19975;-62
2023/04/29 14:31:36;;;;;;;;;;;;;;;;;;5017679;28;20616;-62
2023/04/29 14:34:10;;;;;;;;;;;;;;;;;;5020452;28;19929;-62
2023/04/29 14:36:37;;;;;;;;;;;;;;;;;;5017761;28;19952;-61
2023/04/29 14:39:04;;;;;;;;;;;;;;;;;;5010394;28;19925;-62
2023/04/29 14:41:38;;;;;;;;;;;;;;;;;;5012951;28;20289;-62
2023/04/29 14:44:05;;;;;;;;;;;;;;;;;;5019278;28;19928;-55
2023/04/29 14:46:40;;;;;;;;;;;;;;;;;;5019263;28;19921;-62
2023/04/29 14:49:08;;;;;;;;;;;;;;;;;;5016587;28;19925;-62
2023/04/29 14:51:35;;;;;;;;;;;;;;;;;;5015653;28;19924;-62
2023/04/29 14:54:10;;;;;;;;;;;;;;;;;;5017784;28;19936;-62
2023/04/29 14:56:37;;;;;;;;;;;;;;;;;;5017745;28;19951;-62
2023/04/29 14:59:11;;;;;;;;;;;;;;;;;;5015908;28;19935;-62
2023/04/29 15:01:38;;;;;;;;;;;;;;;;;;5016998;28;20020;-62
2023/04/29 15:04:06;;;;;;;;;;;;;;;;;;5018882;28;20332;-62
2023/04/29 15:06:39;;;;;;;;;;;;;;;;;;5017005;28;19976;-62
2023/04/29 15:09:06;;;;;;;;;;;;;;;;;;5019668;28;20424;-62
2023/04/29 15:11:40;;;;;;;;;;;;;;;;;;5019166;28;19935;-62
2023/04/29 15:14:07;;;;;;;;;;;;;;;;;;5017526;28;20027;-62
2023/04/29 15:16:35;;;;;;;;;;;;;;;;;;5021220;28;20012;-55
2023/04/29 15:19:08;;;;;;;;;;;;;;;;;;5018780;28;19932;-53
2023/04/29 15:21:35;;;;;;;;;;;;;;;;;;5017366;28;20101;-54
2023/04/29 15:24:09;;;;;;;;;;;;;;;;;;5015757;28;19929;-49
2023/04/29 15:26:36;;;;;;;;;;;;;;;;;;5018263;28;19947;-52
2023/04/29 15:29:03;;;;;;;;;;;;;;;;;;5020022;28;19967;-53
2023/04/29 15:31:37;;;;;;;;;;;;;;;;;;5019880;28;20008;-57
2023/04/29 15:34:04;;;;;;;;;;;;;;;;;;5019794;28;19928;-59
2023/04/29 15:36:38;;;;;;;;;;;;;;;;;;5016615;28;20320;-57
2023/04/29 15:39:05;;;;;;;;;;;;;;;;;;5016262;28;19925;-59
2023/04/29 15:41:32;;;;;;;;;;;;;;;;;;5019977;28;20008;-62
2023/04/29 15:44:06;;;;;;;;;;;;;;;;;;5019707;28;20376;-62
2023/04/29 15:46:33;;;;;;;;;;;;;;;;;;5017049;28;19930;-62
2023/04/29 15:49:07;;;;;;;;;;;;;;;;;;5017801;28;20100;-62
2023/04/29 15:51:34;;;;;;;;;;;;;;;;;;5017318;28;19925;-62
2023/04/29 15:54:01;;;;;;;;;;;;;;;;;;5019134;28;19925;-61
2023/04/29 15:56:35;;;;;;;;;;;;;;;;;;5020519;28;19947;-62
2023/04/29 15:59:02;;;;;;;;;;;;;;;;;;5009783;28;19929;-55
2023/04/29 16:01:36;;;;;;;;;;;;;;;;;;5007360;28;20403;-58
2023/04/29 16:04:03;;;;;;;;;;;;;;;;;;5018678;28;19960;-60
2023/04/29 16:06:31;;;;;;;;;;;;;;;;;;5012538;28;19929;-57
2023/04/29 16:09:05;;;;;;;;;;;;;;;;;;5015265;28;20003;-62
2023/04/29 16:11:32;;;;;;;;;;;;;;;;;;5023300;28;19921;-54
2023/04/29 16:14:06;;;;;;;;;;;;;;;;;;5019327;28;19929;-60
2023/04/29 16:16:33;;;;;;;;;;;;;;;;;;5016562;28;19929;-60
2023/04/29 16:19:00;;;;;;;;;;;;;;;;;;5018055;28;19976;-60
2023/04/29 16:21:34;;;;;;;;;;;;;;;;;;5015627;28;19924;-60
2023/04/29 16:24:01;;;;;;;;;;;;;;;;;;5019215;28;20392;-60
2023/04/29 16:26:36;;;;;;;;;;;;;;;;;;5020357;28;19955;-60
2023/04/29 16:29:03;;;;;;;;;;;;;;;;;;5016038;28;19984;-59
2023/04/29 16:31:30;;;;;;;;;;;;;;;;;;5018839;28;19948;-59
2023/04/29 16:34:04;;;;;;;;;;;;;;;;;;5019104;28;19927;-58
2023/04/29 16:36:31;;;;;;;;;;;;;;;;;;5015688;28;20012;-57
2023/04/29 16:39:05;;;;;;;;;;;;;;;;;;5016473;28;19925;-61
2023/04/29 16:41:32;;;;;;;;;;;;;;;;;;5018395;28;19991;-58
2023/04/29 16:43:59;;;;;;;;;;;;;;;;;;5020165;28;19921;-57
2023/04/29 16:46:33;;;;;;;;;;;;;;;;;;5016667;28;19925;-58
2023/04/29 16:49:01;;;;;;;;;;;;;;;;;;5013468;28;19932;-52
2023/04/29 16:51:28;;;;;;;;;;;;;;;;;;5018825;28;20408;-54
2023/04/29 16:54:01;;;;;;;;;;;;;;;;;;5018509;28;19928;-58
2023/04/29 16:56:28;;;;;;;;;;;;;;;;;;5000278;28;20432;-58
2023/04/29 16:58:55;;;;;;;;;;;;;;;;;;5015171;28;20303;-59
2023/04/29 17:01:29;;;;;;;;;;;;;;;;;;5014809;28;20372;-58
2023/04/29 17:03:56;;;;;;;;;;;;;;;;;;5016748;28;20392;-59
2023/04/29 17:06:31;;;;;;;;;;;;;;;;;;5019839;28;19929;-60